createdAt,value
2023-07-25T00:01:04.385Z,99.9
2023-07-25T00:03:01.473Z,99.9
2023-07-25T00:04:58.614Z,99.9
2023-07-25T00:06:55.654Z,99.9
2023-07-25T00:08:52.557Z,99.9
2023-07-25T00:10:49.638Z,99.9
2023-07-25T00:12:46.544Z,99.9
2023-07-25T00:14:43.558Z,99.9
2023-07-25T00:16:40.688Z,99.9
2023-07-25T00:18:37.617Z,99.9
2023-07-25T00:20:34.603Z,99.9
2023-07-25T00:22:31.650Z,99.9
2023-07-25T00:24:28.830Z,99.9
2023-07-25T00:26:25.986Z,99.9
2023-07-25T00:28:22.995Z,99.9
2023-07-25T00:30:20.104Z,99.9
2023-07-25T00:32:17.066Z,99.9
2023-07-25T00:34:14.063Z,99.9
2023-07-25T00:36:11.028Z,99.9
2023-07-25T00:38:07.968Z,99.9
2023-07-25T00:40:04.897Z,99.9
2023-07-25T00:42:02.442Z,99.9
2023-07-25T00:43:59.402Z,99.9
2023-07-25T00:45:56.524Z,99.9
2023-07-25T00:47:53.802Z,99.9
2023-07-25T00:49:50.822Z,99.9
2023-07-25T00:51:47.925Z,99.9
2023-07-25T00:53:44.966Z,99.9
2023-07-25T00:55:42.019Z,99.9
2023-07-25T00:57:38.997Z,99.9
2023-07-25T00:59:35.990Z,99.9
2023-07-25T01:01:33.802Z,99.9
2023-07-25T01:03:31.584Z,99.9
2023-07-25T01:05:28.619Z,99.9
2023-07-25T01:07:25.648Z,99.9
2023-07-25T01:09:22.916Z,99.9
2023-07-25T01:11:19.847Z,99.9
2023-07-25T01:13:16.832Z,99.9
2023-07-25T01:15:13.833Z,99.9
2023-07-25T01:17:11.048Z,99.9
2023-07-25T01:19:08.066Z,99.9
2023-07-25T01:21:05.226Z,99.9
2023-07-25T01:23:02.072Z,99.9
2023-07-25T01:24:59.248Z,99.9
2023-07-25T01:26:56.137Z,99.9
2023-07-25T01:28:53.116Z,99.9
2023-07-25T01:30:50.227Z,99.9
2023-07-25T01:32:47.713Z,99.9
2023-07-25T01:34:44.929Z,99.9
2023-07-25T01:36:42.005Z,99.9
2023-07-25T01:38:38.921Z,99.9
2023-07-25T01:40:35.961Z,99.9
2023-07-25T01:42:32.861Z,99.9
2023-07-25T01:44:29.964Z,99.9
2023-07-25T01:46:27.041Z,99.9
2023-07-25T01:48:24.165Z,99.9
2023-07-25T01:50:21.179Z,99.9
2023-07-25T01:52:18.089Z,99.9
2023-07-25T01:54:15.010Z,99.9
2023-07-25T01:56:11.964Z,99.9
2023-07-25T01:58:08.798Z,99.9
2023-07-25T02:00:05.856Z,99.9
2023-07-25T02:02:03.654Z,99.9
2023-07-25T02:04:00.878Z,99.9
2023-07-25T02:05:57.919Z,99.9
2023-07-25T02:07:55.544Z,99.9
2023-07-25T02:09:52.569Z,99.9
2023-07-25T02:11:49.581Z,99.9
2023-07-25T02:13:46.493Z,99.9
2023-07-25T02:15:43.545Z,99.9
2023-07-25T02:17:40.801Z,99.9
2023-07-25T02:19:38.091Z,99.9
2023-07-25T02:21:35.158Z,99.9
2023-07-25T02:23:32.167Z,99.9
2023-07-25T02:25:29.071Z,99.9
2023-07-25T02:27:26.147Z,99.9
2023-07-25T02:29:23.159Z,99.9
2023-07-25T02:31:20.392Z,99.9
2023-07-25T02:33:17.526Z,99.9
2023-07-25T02:35:14.750Z,99.9
2023-07-25T02:37:11.886Z,99.9
2023-07-25T02:39:08.822Z,99.9
2023-07-25T02:41:05.677Z,99.9
2023-07-25T02:43:02.606Z,99.9
2023-07-25T02:44:59.599Z,99.9
2023-07-25T02:46:56.680Z,99.9
2023-07-25T02:48:53.727Z,99.9
2023-07-25T02:50:50.777Z,99.9
2023-07-25T02:52:47.788Z,99.9
2023-07-25T02:54:44.752Z,99.9
2023-07-25T02:56:41.746Z,99.9
2023-07-25T02:58:38.632Z,99.9
2023-07-25T03:00:35.833Z,99.9
2023-07-25T03:02:33.311Z,99.9
2023-07-25T03:04:30.388Z,99.9
2023-07-25T03:06:27.476Z,99.9
2023-07-25T03:08:24.528Z,99.9
2023-07-25T03:10:21.461Z,99.9
2023-07-25T03:12:18.307Z,99.9
2023-07-25T03:14:15.272Z,99.9
2023-07-25T03:16:12.434Z,99.9
2023-07-25T03:18:10.843Z,99.9
2023-07-25T03:20:08.163Z,99.9
2023-07-25T03:22:05.204Z,99.9
2023-07-25T03:24:02.256Z,99.9
2023-07-25T03:25:59.174Z,99.9
2023-07-25T03:27:56.063Z,99.9
2023-07-25T03:29:53.026Z,99.9
2023-07-25T03:31:50.030Z,99.9
2023-07-25T03:33:47.011Z,99.9
2023-07-25T03:35:43.951Z,99.9
2023-07-25T03:37:41.019Z,99.9
2023-07-25T03:39:37.965Z,99.9
2023-07-25T03:41:35.237Z,99.9
2023-07-25T03:43:32.074Z,99.9
2023-07-25T03:45:29.017Z,99.9
2023-07-25T03:47:26.147Z,99.9
2023-07-25T03:49:23.257Z,99.9
2023-07-25T03:51:20.309Z,99.9
2023-07-25T03:53:17.574Z,99.9
2023-07-25T03:55:14.522Z,99.9
2023-07-25T03:57:11.451Z,99.9
2023-07-25T03:59:08.437Z,99.9
2023-07-25T04:01:05.622Z,99.9
2023-07-25T04:03:15.892Z,99.9
2023-07-25T04:05:13.381Z,99.9
2023-07-25T04:07:10.376Z,99.9
2023-07-25T04:09:07.611Z,99.9
2023-07-25T04:11:04.728Z,99.9
2023-07-25T04:13:01.676Z,99.9
2023-07-25T04:14:58.598Z,99.9
2023-07-25T04:16:55.858Z,99.9
2023-07-25T04:18:52.901Z,99.9
2023-07-25T04:20:49.935Z,99.9
2023-07-25T04:22:46.879Z,99.9
2023-07-25T04:24:44.150Z,99.9
2023-07-25T04:26:41.119Z,99.9
2023-07-25T04:28:38.115Z,99.9
2023-07-25T04:30:35.130Z,99.9
2023-07-25T04:32:32.083Z,99.9
2023-07-25T04:34:29.423Z,99.9
2023-07-25T04:36:26.676Z,99.9
2023-07-25T04:38:23.776Z,99.9
2023-07-25T04:40:20.782Z,99.9
2023-07-25T04:42:17.681Z,99.9
2023-07-25T04:44:14.837Z,99.9
2023-07-25T04:46:12.552Z,99.9
2023-07-25T04:48:09.963Z,99.9
2023-07-25T04:50:07.032Z,99.9
2023-07-25T04:52:04.219Z,99.9
2023-07-25T04:54:01.322Z,99.9
2023-07-25T04:55:58.497Z,99.9
2023-07-25T04:57:55.542Z,99.9
2023-07-25T04:59:52.611Z,99.9
2023-07-25T05:01:49.929Z,99.9
2023-07-25T05:03:47.116Z,99.9
2023-07-25T05:05:44.096Z,99.9
2023-07-25T05:07:41.098Z,99.9
2023-07-25T05:09:38.137Z,99.9
2023-07-25T05:11:35.256Z,99.9
2023-07-25T05:13:32.188Z,99.9
2023-07-25T05:15:29.368Z,99.9
2023-07-25T05:17:26.512Z,99.9
2023-07-25T05:19:23.594Z,99.9
2023-07-25T05:21:20.663Z,99.9
2023-07-25T05:23:17.670Z,99.9
2023-07-25T05:25:14.798Z,99.9
2023-07-25T05:27:11.824Z,99.9
2023-07-25T05:29:08.935Z,99.9
2023-07-25T05:31:06.048Z,99.9
2023-07-25T05:33:06.115Z,99.9
2023-07-25T05:35:03.157Z,99.9
2023-07-25T05:37:00.181Z,99.9
2023-07-25T05:38:57.272Z,99.9
2023-07-25T05:40:54.288Z,99.9
2023-07-25T05:42:51.297Z,99.9
2023-07-25T05:44:48.170Z,99.9
2023-07-25T05:46:45.293Z,99.9
2023-07-25T05:48:42.237Z,99.9
2023-07-25T05:50:39.201Z,99.9
2023-07-25T05:52:36.109Z,98.2
2023-07-25T05:54:33.175Z,90.3
2023-07-25T05:56:30.156Z,90.7
2023-07-25T05:58:27.202Z,88.7
2023-07-25T06:00:24.190Z,87
2023-07-25T06:02:21.139Z,85.3
2023-07-25T06:04:18.239Z,84.9
2023-07-25T06:06:15.274Z,85.3
2023-07-25T06:08:12.292Z,87.5
2023-07-25T06:10:09.261Z,88.5
2023-07-25T06:12:06.304Z,89.4
2023-07-25T06:14:03.586Z,90.5
2023-07-25T06:16:00.546Z,90.6
2023-07-25T06:17:57.556Z,90.6
2023-07-25T06:19:54.580Z,91.5
2023-07-25T06:21:51.619Z,90.9
2023-07-25T06:23:48.837Z,89.3
2023-07-25T06:25:45.965Z,89.7
2023-07-25T06:27:43.324Z,90
2023-07-25T06:29:40.795Z,88.4
2023-07-25T06:31:38.089Z,84.8
2023-07-25T06:33:35.237Z,85.4
2023-07-25T06:35:32.310Z,81.6
2023-07-25T06:37:29.248Z,80.5
2023-07-25T06:39:26.250Z,80.8
2023-07-25T06:41:23.164Z,81.1
2023-07-25T06:43:20.186Z,82.9
2023-07-25T06:45:17.257Z,80.3
2023-07-25T06:47:14.470Z,78.9
2023-07-25T06:49:11.459Z,76
2023-07-25T06:51:08.513Z,71.7
2023-07-25T06:53:05.594Z,72.5
2023-07-25T06:55:02.543Z,72.2
2023-07-25T06:56:59.481Z,73.8
2023-07-25T06:58:56.427Z,71.9
2023-07-25T07:00:53.691Z,71.9
2023-07-25T07:02:51.097Z,69.6
2023-07-25T07:04:48.333Z,69.9
2023-07-25T07:06:45.321Z,65.3
2023-07-25T07:08:42.412Z,61.5
2023-07-25T07:10:39.456Z,61.9
2023-07-25T07:12:36.444Z,63.9
2023-07-25T07:14:33.444Z,65.8
2023-07-25T07:16:33.656Z,62.8
2023-07-25T07:18:30.808Z,63.5
2023-07-25T07:20:27.849Z,64.7
2023-07-25T07:22:24.921Z,64
2023-07-25T07:24:21.932Z,63.8
2023-07-25T07:26:19.092Z,65.3
2023-07-25T07:28:16.125Z,66.8
2023-07-25T07:30:13.058Z,66
2023-07-25T07:32:10.164Z,66
2023-07-25T07:34:07.030Z,65.5
2023-07-25T07:36:04.101Z,65.8
2023-07-25T07:38:03.138Z,66.7
2023-07-25T07:40:00.106Z,66.3
2023-07-25T07:41:57.386Z,65.4
2023-07-25T07:43:54.370Z,66.2
2023-07-25T07:45:51.480Z,67.2
2023-07-25T07:47:48.588Z,66.7
2023-07-25T07:49:45.663Z,66.3
2023-07-25T07:51:51.805Z,66.5
2023-07-25T07:53:54.575Z,66.7
2023-07-25T07:55:51.594Z,67
2023-07-25T07:57:48.647Z,68.3
2023-07-25T07:59:46.286Z,67.8
2023-07-25T08:01:43.382Z,66.4
2023-07-25T08:03:40.556Z,66
2023-07-25T08:05:37.625Z,65
2023-07-25T08:07:34.666Z,65.4
2023-07-25T08:09:31.710Z,64.1
2023-07-25T08:11:28.856Z,64.9
2023-07-25T08:13:26.064Z,64.9
2023-07-25T08:15:23.353Z,62.3
2023-07-25T08:17:20.708Z,59.6
2023-07-25T08:19:17.724Z,60.3
2023-07-25T08:21:14.745Z,59.2
2023-07-25T08:23:11.787Z,58.9
2023-07-25T08:25:08.932Z,58.6
2023-07-25T08:27:06.193Z,58.3
2023-07-25T08:29:03.176Z,59.5
2023-07-25T08:31:00.404Z,60.1
2023-07-25T08:32:57.741Z,60.6
2023-07-25T08:34:54.906Z,60.1
2023-07-25T08:36:51.856Z,60.3
2023-07-25T08:38:48.695Z,60
2023-07-25T08:40:45.766Z,60.9
2023-07-25T08:42:42.807Z,59.7
2023-07-25T08:44:39.934Z,60.1
2023-07-25T08:46:37.061Z,59.8
2023-07-25T08:48:34.275Z,58.6
2023-07-25T08:50:31.427Z,58.6
2023-07-25T08:52:28.565Z,59.2
2023-07-25T08:54:25.566Z,60
2023-07-25T08:56:22.657Z,59.6
2023-07-25T08:58:19.605Z,59.9
2023-07-25T09:00:16.568Z,57.7
2023-07-25T09:02:14.097Z,57.6
2023-07-25T09:04:11.344Z,57.3
2023-07-25T09:06:08.619Z,58.4
2023-07-25T09:08:05.499Z,58.2
2023-07-25T09:10:02.583Z,59.4
2023-07-25T09:12:00.110Z,59.4
2023-07-25T09:13:57.070Z,59.6
2023-07-25T09:15:54.096Z,58.9
2023-07-25T09:17:51.133Z,59
2023-07-25T09:19:48.211Z,59.5
2023-07-25T09:21:45.279Z,60.3
2023-07-25T09:23:42.400Z,61
2023-07-25T09:25:39.491Z,60.2
2023-07-25T09:27:36.596Z,58.9
2023-07-25T09:29:33.526Z,58
2023-07-25T09:31:31.037Z,55.7
2023-07-25T09:33:28.282Z,54
2023-07-25T09:35:25.377Z,52.2
2023-07-25T09:37:22.502Z,51.2
2023-07-25T09:39:19.473Z,53.5
2023-07-25T09:41:16.710Z,53.6
2023-07-25T09:43:13.553Z,50.8
2023-07-25T09:45:10.466Z,51.9
2023-07-25T09:47:07.486Z,50.1
2023-07-25T09:49:04.595Z,47.2
2023-07-25T09:51:01.626Z,45.4
2023-07-25T09:52:58.743Z,45.9
2023-07-25T09:54:55.772Z,45.6
2023-07-25T09:56:52.660Z,46.4
2023-07-25T09:59:07.346Z,46.5
2023-07-25T10:01:04.790Z,47.4
2023-07-25T10:03:02.239Z,47.5
2023-07-25T10:04:59.431Z,48.7
2023-07-25T10:06:56.583Z,50.5
2023-07-25T10:08:53.786Z,52
2023-07-25T10:10:50.853Z,53.5
2023-07-25T10:12:47.807Z,55.1
2023-07-25T10:14:44.887Z,56.3
2023-07-25T10:16:41.878Z,57.2
2023-07-25T10:18:38.924Z,58.1
2023-07-25T10:20:38.482Z,59.1
2023-07-25T10:22:35.569Z,59.8
2023-07-25T10:24:32.767Z,60.5
2023-07-25T10:26:29.878Z,60.8
2023-07-25T10:28:26.908Z,60.9
2023-07-25T10:30:24.056Z,61.6
2023-07-25T10:32:21.132Z,61.4
2023-07-25T10:34:18.192Z,60.5
2023-07-25T10:36:15.211Z,60.5
2023-07-25T10:38:12.231Z,59.7
2023-07-25T10:40:09.453Z,58.1
2023-07-25T10:42:06.628Z,57.7
2023-07-25T10:44:04.356Z,56.4
2023-07-25T10:46:01.393Z,56.2
2023-07-25T10:47:58.471Z,55.8
2023-07-25T10:49:55.466Z,56.9
2023-07-25T10:51:53.080Z,57.3
2023-07-25T10:53:50.247Z,58.3
2023-07-25T10:55:47.287Z,59.5
2023-07-25T10:57:44.666Z,60.7
2023-07-25T10:59:41.771Z,61.7
2023-07-25T11:01:38.928Z,62.3
2023-07-25T11:03:36.204Z,63.1
2023-07-25T11:05:33.355Z,62.9
2023-07-25T11:07:30.452Z,62.8
2023-07-25T11:09:27.527Z,63
2023-07-25T11:11:24.610Z,63.1
2023-07-25T11:13:21.579Z,63.4
2023-07-25T11:17:26.482Z,63.4
2023-07-25T11:19:23.613Z,63.3
2023-07-25T11:21:20.658Z,63.7
2023-07-25T11:23:17.655Z,62.7
2023-07-25T11:25:14.752Z,62.9
2023-07-25T11:27:12.004Z,62.7
2023-07-25T11:29:09.189Z,62.5
2023-07-25T11:31:06.276Z,62.5
2023-07-25T11:33:03.628Z,62.2
2023-07-25T11:35:00.735Z,62.1
2023-07-25T11:36:57.674Z,62.8
2023-07-25T11:38:54.540Z,62.2
2023-07-25T11:40:51.721Z,60.5
2023-07-25T11:42:48.988Z,61.1
2023-07-25T11:44:46.056Z,60.9
2023-07-25T11:46:43.235Z,59.4
2023-07-25T11:48:40.300Z,59.2
2023-07-25T11:50:53.469Z,58.1
2023-07-25T11:52:50.410Z,59.2
2023-07-25T11:54:47.446Z,59.1
2023-07-25T11:56:46.524Z,60
2023-07-25T11:58:45.973Z,59.1
2023-07-25T12:00:43.044Z,57.9
2023-07-25T12:02:40.440Z,56.4
2023-07-25T12:04:37.545Z,54.5
2023-07-25T12:06:35.472Z,51.6
2023-07-25T12:08:33.250Z,52.2
2023-07-25T12:10:30.215Z,50.6
2023-07-25T12:12:27.259Z,50.4
2023-07-25T12:14:24.368Z,49.9
2023-07-25T12:16:21.449Z,48.6
2023-07-25T12:18:18.540Z,48.5
2023-07-25T12:20:15.476Z,48.6
2023-07-25T12:22:12.623Z,46.7
2023-07-25T12:24:09.490Z,45.3
2023-07-25T12:26:06.376Z,43.9
2023-07-25T12:28:03.401Z,43.6
2023-07-25T12:30:00.683Z,42.5
2023-07-25T12:31:57.716Z,42
2023-07-25T12:33:54.948Z,43.3
2023-07-25T12:35:51.982Z,44.5
2023-07-25T12:37:48.946Z,45.9
2023-07-25T12:39:45.965Z,47.5
2023-07-25T12:41:42.933Z,48.6
2023-07-25T12:43:39.845Z,50
2023-07-25T12:45:39.962Z,51
2023-07-25T12:47:36.999Z,51.4
2023-07-25T12:49:34.100Z,52.1
2023-07-25T12:51:31.722Z,52.1
2023-07-25T12:53:28.852Z,52.4
2023-07-25T12:55:25.984Z,53.1
2023-07-25T12:57:23.206Z,53.5
2023-07-25T12:59:20.160Z,53.9
2023-07-25T13:01:17.484Z,53.8
2023-07-25T13:03:15.084Z,50.8
2023-07-25T13:05:12.255Z,48.3
2023-07-25T13:07:09.434Z,46.4
2023-07-25T13:09:06.483Z,45.6
2023-07-25T13:11:03.530Z,45.3
2023-07-25T13:13:00.640Z,41.9
2023-07-25T13:14:57.766Z,42.2
2023-07-25T13:16:57.547Z,41.3
2023-07-25T13:18:54.567Z,40.5
2023-07-25T13:20:51.591Z,41.1
2023-07-25T13:22:48.559Z,41.1
2023-07-25T13:24:45.940Z,41.2
2023-07-25T13:26:42.973Z,40
2023-07-25T13:28:40.046Z,40.5
2023-07-25T13:30:37.145Z,41.2
2023-07-25T13:32:34.577Z,42.9
2023-07-25T13:34:31.639Z,44.3
2023-07-25T13:36:28.605Z,43.6
2023-07-25T13:38:25.519Z,44.8
2023-07-25T13:40:22.620Z,44.5
2023-07-25T13:42:19.723Z,44.1
2023-07-25T13:44:16.857Z,41.9
2023-07-25T13:46:21.539Z,39.2
2023-07-25T13:48:18.897Z,39.6
2023-07-25T13:50:15.973Z,37.9
2023-07-25T13:52:13.020Z,37.6
2023-07-25T13:54:09.961Z,39.3
2023-07-25T13:56:06.925Z,39.6
2023-07-25T13:58:22.928Z,36.1
2023-07-25T14:00:20.342Z,37
2023-07-25T14:02:17.385Z,36.5
2023-07-25T14:04:14.591Z,36.3
2023-07-25T14:06:11.622Z,35.4
2023-07-25T14:08:09.248Z,35.8
2023-07-25T14:10:06.403Z,36.3
2023-07-25T14:12:03.537Z,37.1
2023-07-25T14:14:00.820Z,36.9
2023-07-25T14:15:58.102Z,37.6
2023-07-25T14:17:55.408Z,38.1
2023-07-25T14:19:52.458Z,39.4
2023-07-25T14:21:49.411Z,39.9
2023-07-25T14:23:46.253Z,40.5
2023-07-25T14:25:43.084Z,40.9
2023-07-25T14:27:39.992Z,41.5
2023-07-25T14:29:37.023Z,41.5
2023-07-25T14:31:34.414Z,41
2023-07-25T14:33:31.573Z,41.1
2023-07-25T14:35:28.737Z,40.3
2023-07-25T14:37:44.002Z,40.4
2023-07-25T14:39:45.588Z,40.2
2023-07-25T14:41:42.633Z,38.8
2023-07-25T14:43:39.677Z,38.8
2023-07-25T14:45:36.597Z,38.4
2023-07-25T14:47:34.225Z,38.5
2023-07-25T14:49:31.321Z,36.7
2023-07-25T14:51:28.388Z,34.5
2023-07-25T14:53:25.355Z,35
2023-07-25T14:55:22.348Z,35.5
2023-07-25T14:57:19.543Z,36.1
2023-07-25T14:59:16.587Z,36.3
2023-07-25T15:01:13.796Z,34.7
2023-07-25T15:03:11.159Z,35.1
2023-07-25T15:05:08.290Z,36.2
2023-07-25T15:07:05.407Z,36.7
2023-07-25T15:09:05.368Z,36.3
2023-07-25T15:11:02.458Z,33.5
2023-07-25T15:12:59.685Z,31.8
2023-07-25T15:14:56.656Z,30.9
2023-07-25T15:16:53.890Z,33.2
2023-07-25T15:18:50.920Z,34.3
2023-07-25T15:20:47.708Z,34.2
2023-07-25T15:22:44.947Z,33.3
2023-07-25T15:24:41.917Z,33.6
2023-07-25T15:26:39.104Z,32.9
2023-07-25T15:28:36.114Z,31.5
2023-07-25T15:30:33.234Z,31.3
2023-07-25T15:32:30.278Z,31.6
2023-07-25T15:34:27.170Z,31.3
2023-07-25T15:36:24.264Z,30.7
2023-07-25T15:38:21.448Z,30
2023-07-25T15:40:18.351Z,30.4
2023-07-25T15:42:15.297Z,29
2023-07-25T15:44:12.333Z,29.1
2023-07-25T15:46:09.331Z,29.8
2023-07-25T15:48:06.587Z,30.3
2023-07-25T15:50:03.720Z,29.6
2023-07-25T15:52:01.138Z,30.3
2023-07-25T15:53:58.246Z,31.6
2023-07-25T15:55:55.215Z,33.4
2023-07-25T15:57:52.208Z,35.3
2023-07-25T15:59:49.206Z,36.5
2023-07-25T16:01:46.546Z,36.2
2023-07-25T16:03:43.599Z,36.2
2023-07-25T16:05:40.570Z,36.5
2023-07-25T16:07:37.631Z,36.1
2023-07-25T16:09:34.888Z,35
2023-07-25T16:11:32.482Z,34.1
2023-07-25T16:13:31.838Z,33.9
2023-07-25T16:15:28.750Z,33.9
2023-07-25T16:17:25.823Z,33.7
2023-07-25T16:19:22.766Z,34.1
2023-07-25T16:21:19.598Z,34.9
2023-07-25T16:23:16.639Z,33.3
2023-07-25T16:25:13.734Z,33.5
2023-07-25T16:27:10.675Z,33.5
2023-07-25T16:29:07.567Z,32.5
2023-07-25T16:31:32.311Z,33.1
2023-07-25T16:33:29.848Z,33.2
2023-07-25T16:35:26.809Z,33.2
2023-07-25T16:37:23.673Z,33
2023-07-25T16:39:20.694Z,32.8
2023-07-25T16:41:17.731Z,33.9
2023-07-25T16:43:14.941Z,34.2
2023-07-25T16:45:11.904Z,33.5
2023-07-25T16:47:08.889Z,33.4
2023-07-25T16:49:05.908Z,33.8
2023-07-25T16:51:02.799Z,33.5
2023-07-25T16:52:59.773Z,33.4
2023-07-25T16:54:56.796Z,33.3
2023-07-25T16:56:53.827Z,34.1
2023-07-25T16:58:50.726Z,36.1
2023-07-25T17:00:47.611Z,36.8
2023-07-25T17:02:44.931Z,37.3
2023-07-25T17:04:42.216Z,38
2023-07-25T17:06:39.178Z,39.1
2023-07-25T17:08:36.054Z,40
2023-07-25T17:10:33.135Z,41.7
2023-07-25T17:12:32.826Z,41.8
2023-07-25T17:14:29.744Z,42.3
2023-07-25T17:16:26.920Z,42.7
2023-07-25T17:18:24.023Z,43.1
2023-07-25T17:20:20.922Z,44
2023-07-25T17:22:18.065Z,45.1
2023-07-25T17:24:15.272Z,44.8
2023-07-25T17:26:12.354Z,44.5
2023-07-25T17:28:09.629Z,44.6
2023-07-25T17:30:06.535Z,45.2
2023-07-25T17:32:04.113Z,45.2
2023-07-25T17:34:01.101Z,45.3
2023-07-25T17:36:05.923Z,45.7
2023-07-25T17:38:03.199Z,46.8
2023-07-25T17:40:00.316Z,47.8
2023-07-25T17:41:57.418Z,47.9
2023-07-25T17:43:54.566Z,46.9
2023-07-25T17:45:51.839Z,45.4
2023-07-25T17:47:49.087Z,44.7
2023-07-25T17:49:49.177Z,42.5
2023-07-25T17:51:46.146Z,42.8
2023-07-25T17:53:43.170Z,42.7
2023-07-25T17:55:42.073Z,41.9
2023-07-25T17:57:39.085Z,41.8
2023-07-25T17:59:36.409Z,41.9
2023-07-25T18:01:34.229Z,41.8
2023-07-25T18:03:31.719Z,41.7
2023-07-25T18:05:28.900Z,41.4
2023-07-25T18:07:25.896Z,41.4
2023-07-25T18:09:22.915Z,41
2023-07-25T18:11:20.141Z,41.4
2023-07-25T18:13:17.225Z,42.7
2023-07-25T18:15:14.349Z,43.7
2023-07-25T18:17:11.423Z,44.3
2023-07-25T18:19:08.613Z,45.2
2023-07-25T18:21:09.236Z,46
2023-07-25T18:23:07.357Z,46.5
2023-07-25T18:25:04.515Z,46.6
2023-07-25T18:27:01.558Z,46.5
2023-07-25T18:28:58.596Z,46.6
2023-07-25T18:30:55.904Z,46.8
2023-07-25T18:32:52.956Z,47
2023-07-25T18:34:49.862Z,46.7
2023-07-25T18:36:47.103Z,46.7
2023-07-25T18:38:44.181Z,47.6
2023-07-25T18:40:41.316Z,48.5
2023-07-25T18:42:38.364Z,49.4
2023-07-25T18:44:35.676Z,49.8
2023-07-25T18:46:33.380Z,49.8
2023-07-25T18:48:30.673Z,50.3
2023-07-25T18:50:27.596Z,51
2023-07-25T18:52:24.451Z,51.9
2023-07-25T18:54:21.359Z,52.6
2023-07-25T18:56:18.341Z,53.5
2023-07-25T18:58:18.031Z,54
2023-07-25T19:00:14.985Z,54.9
2023-07-25T19:02:12.152Z,55.3
2023-07-25T19:04:09.172Z,56
2023-07-25T19:06:06.164Z,56.1
2023-07-25T19:08:03.113Z,57.2
2023-07-25T19:10:00.153Z,57.7
2023-07-25T19:11:57.306Z,57.7
2023-07-25T19:13:54.449Z,58.5
2023-07-25T19:15:51.445Z,59.3
2023-07-25T19:17:48.725Z,59.3
2023-07-25T19:19:45.844Z,59.6
2023-07-25T19:21:42.823Z,59.5
2023-07-25T19:23:54.301Z,60.3
2023-07-25T19:25:51.248Z,61.1
2023-07-25T19:27:48.273Z,61.2
2023-07-25T19:29:45.178Z,61.2
2023-07-25T19:31:42.328Z,61.9
2023-07-25T19:33:39.591Z,61.4
2023-07-25T19:35:40.598Z,61.6
2023-07-25T19:37:37.807Z,61.7
2023-07-25T19:39:34.656Z,61.2
2023-07-25T19:41:32.230Z,61.6
2023-07-25T19:43:29.426Z,62.6
2023-07-25T19:45:26.463Z,62.8
2023-07-25T19:47:23.664Z,63.7
2023-07-25T19:49:20.816Z,64
2023-07-25T19:51:17.731Z,63.7
2023-07-25T19:53:14.629Z,64
2023-07-25T19:55:11.676Z,64.2
2023-07-25T19:57:08.516Z,64.1
2023-07-25T19:59:06.825Z,64.5
2023-07-25T20:01:04.054Z,64.2
2023-07-25T20:03:01.410Z,64.1
2023-07-25T20:04:58.492Z,63.9
2023-07-25T20:06:55.383Z,63.8
2023-07-25T20:08:52.428Z,64.2
2023-07-25T20:10:49.450Z,64
2023-07-25T20:12:46.554Z,64
2023-07-25T20:14:43.487Z,64.1
2023-07-25T20:16:40.712Z,64
2023-07-25T20:18:37.775Z,64
2023-07-25T20:20:34.850Z,63.9
2023-07-25T20:22:31.917Z,64.1
2023-07-25T20:24:29.097Z,64.5
2023-07-25T20:26:26.190Z,65.2
2023-07-25T20:28:23.199Z,65.6
2023-07-25T20:30:20.302Z,66
2023-07-25T20:32:17.272Z,66.1
2023-07-25T20:34:14.341Z,66
2023-07-25T20:36:11.512Z,66.7
2023-07-25T20:38:08.467Z,68
2023-07-25T20:40:09.909Z,68.5
2023-07-25T20:42:07.267Z,68.8
2023-07-25T20:44:04.469Z,68.5
2023-07-25T20:46:01.371Z,68.6
2023-07-25T20:47:58.551Z,68.3
2023-07-25T20:49:55.697Z,68.1
2023-07-25T20:51:52.740Z,68.6
2023-07-25T20:53:49.949Z,69.1
2023-07-25T20:55:46.851Z,69.1
2023-07-25T20:57:43.816Z,69
2023-07-25T20:59:40.771Z,69
2023-07-25T21:01:38.090Z,69.4
2023-07-25T21:03:35.393Z,69.5
2023-07-25T21:05:32.358Z,69.3
2023-07-25T21:07:29.475Z,69.5
2023-07-25T21:09:26.552Z,69.6
2023-07-25T21:11:23.501Z,69.2
2023-07-25T21:13:20.586Z,69.2
2023-07-25T21:15:17.573Z,69.4
2023-07-25T21:17:14.824Z,69.4
2023-07-25T21:19:11.770Z,69.9
2023-07-25T21:21:08.770Z,69.8
2023-07-25T21:23:05.828Z,70
2023-07-25T21:25:02.998Z,70.4
2023-07-25T21:27:00.457Z,70.4
2023-07-25T21:28:57.573Z,70.4
2023-07-25T21:30:54.668Z,70.6
2023-07-25T21:32:51.949Z,70.5
2023-07-25T21:34:48.944Z,71.1
2023-07-25T21:36:45.937Z,70.7
2023-07-25T21:38:42.914Z,71
2023-07-25T21:40:40.026Z,71.2
2023-07-25T21:42:37.010Z,71
2023-07-25T21:44:34.108Z,71.5
2023-07-25T21:46:31.814Z,71.5
2023-07-25T21:48:29.076Z,72.2
2023-07-25T21:50:26.055Z,72.4
2023-07-25T21:52:23.004Z,72.6
2023-07-25T21:54:20.175Z,73.2
2023-07-25T21:56:17.298Z,73
2023-07-25T21:58:14.244Z,73
2023-07-25T22:00:11.274Z,73.4
2023-07-25T22:02:08.274Z,73.3
2023-07-25T22:04:05.489Z,73
2023-07-25T22:06:02.635Z,73.1
2023-07-25T22:07:59.707Z,73
2023-07-25T22:09:56.784Z,73
2023-07-25T22:11:54.203Z,73.2
2023-07-25T22:13:51.448Z,73.3
2023-07-25T22:15:48.514Z,73.3
2023-07-25T22:17:45.755Z,73.2
2023-07-25T22:19:42.698Z,73.6
2023-07-25T22:21:39.672Z,73.6
2023-07-25T22:23:36.719Z,73.9
2023-07-25T22:25:33.838Z,74
2023-07-25T22:27:30.962Z,74.4
2023-07-25T22:29:27.890Z,73.9
2023-07-25T22:31:25.073Z,74.2
2023-07-25T22:33:22.099Z,74.4
2023-07-25T22:35:19.002Z,75.1
2023-07-25T22:37:15.977Z,75.7
2023-07-25T22:39:13.029Z,75.2
2023-07-25T22:41:10.142Z,75
2023-07-25T22:43:07.109Z,74.9
2023-07-25T22:45:04.132Z,75
2023-07-25T22:47:01.503Z,74.7
2023-07-25T22:48:58.546Z,74.7
2023-07-25T22:50:55.641Z,74.7
2023-07-25T22:52:52.687Z,75
2023-07-25T22:54:49.754Z,75.4
2023-07-25T22:56:46.822Z,75.6
2023-07-25T22:58:43.974Z,75.5
2023-07-25T23:00:40.968Z,76.2
2023-07-25T23:02:38.350Z,76.6
2023-07-25T23:04:35.418Z,77
2023-07-25T23:06:32.870Z,76.9
2023-07-25T23:08:29.924Z,77.8
2023-07-25T23:10:26.958Z,78.1
2023-07-25T23:12:24.069Z,77.9
2023-07-25T23:14:21.038Z,78.1
2023-07-25T23:16:18.308Z,78.8
2023-07-25T23:18:15.534Z,79.2
2023-07-25T23:20:12.681Z,79.4
2023-07-25T23:22:09.625Z,79.2
2023-07-25T23:24:06.715Z,79.2
2023-07-25T23:26:03.539Z,79.8
2023-07-25T23:28:00.627Z,79.7
2023-07-25T23:29:57.648Z,79.9
2023-07-25T23:31:54.864Z,80.1
2023-07-25T23:33:52.109Z,80.2
2023-07-25T23:35:49.097Z,80.1
2023-07-25T23:37:46.098Z,79.7
2023-07-25T23:39:43.097Z,80
2023-07-25T23:41:40.218Z,79.9
2023-07-25T23:43:37.434Z,79.9
2023-07-25T23:45:34.489Z,79.8
2023-07-25T23:47:31.726Z,79.6
2023-07-25T23:49:28.777Z,79.5
2023-07-25T23:51:25.844Z,79.3
2023-07-25T23:53:22.789Z,78.7
2023-07-25T23:55:19.804Z,78.3
2023-07-25T23:57:16.774Z,78
2023-07-25T23:59:13.956Z,77.9
